Aérodrome :
LOGIN :

S'inscrire | Disclaimer

   EN    FR    IT 

 










Légende :    VFR   VFR Marginal   IFR   IFR Intensif   IFR Très Intensif
Visi : 
Plafond : 
>= 8 km
>= 3000ft
5 à 8 km
1000 à 3000 ft
1500m à 5 km
500 à 1000 ft
800 à 1500m
200 à 500 ft
< 800m
< 200 ft
Symboles :   Orages  Brouillard  Fortes neiges  Fortes précipitations  Vent > 20 kt
SIGMETs :   Divers  Orages  Givrage  Turbulence  Onde Orograph.  Cendres Volcan.






- Altitude de l'aérodrome : 459 ft
- Code IATA : CER


LFRC - Cherbourg / Maupertus

DERNIER METAR :
  • 021030Z AUTO 30010KT 270V340 9999 FEW029 SCT036 OVC043 09/03 Q1018

METARs EXPIRÉS :
  • 021000Z AUTO 32008KT 280V350 9999 SCT031 BKN044 08/02 Q1018
  • 020930Z AUTO 32007KT 280V360 9999 FEW029 OVC041 08/02 Q1018
  • 020900Z AUTO 32007KT 280V340 9999 SCT029 OVC041 08/02 Q1018
  • 020830Z AUTO 33006KT 290V360 9999 OVC043 08/00 Q1018
  • 020800Z AUTO 34004KT 300V010 9999 OVC041 07/00 Q1018

Prévision TAF périmée.



MET'MAP, la Météo Aéronautique d'un coup d'oeil ! - Copyright ORBIFLY Décembre 2007 - Disclaimer

ORBIFLY MET'MAP TEAM :

Programmation & Développement : Alexandra Zaïnal
Sur une idée originale de : Baudouin d'Aumeries
Assistance à la programmation : Marc-Olivier Méhu
Soutien technique & logistique : Manuel Goepfert

Contact : metmap@orbifly.com




SOURCES & CREDITS :

   NOAA